ěÝzenÝ letovÚho provozu ╚eskÚ republiky
Letiste: LKPJ Aktualizace: 01.12.2023 21:53:38  UTC
 SPECI LKPJ 01.12. 21:54 ...
SPECI LKPJ 012154Z AUTO 34006KT 1300 // FEW004/// OVC022/// M00/M01 Q1003=